createdAt,value
2018-10-09T00:02:10.726Z,68.60
2018-10-09T00:04:37.920Z,68.60
2018-10-09T00:07:05.143Z,68.60
2018-10-09T00:09:32.369Z,68.90
2018-10-09T00:11:59.570Z,68.90
2018-10-09T00:14:26.824Z,68.60
2018-10-09T00:16:54.032Z,69.10
2018-10-09T00:19:21.261Z,68.00
2018-10-09T00:21:48.488Z,68.10
2018-10-09T00:24:15.714Z,68.20
2018-10-09T00:26:42.962Z,68.30
2018-10-09T00:29:10.305Z,69.10
2018-10-09T00:31:37.562Z,68.70
2018-10-09T00:34:04.732Z,68.60
2018-10-09T00:36:31.987Z,68.60
2018-10-09T00:38:59.227Z,68.70
2018-10-09T00:41:26.514Z,68.70
2018-10-09T00:43:53.712Z,69.40
2018-10-09T00:46:20.985Z,68.50
2018-10-09T00:48:48.232Z,68.50
2018-10-09T00:51:15.501Z,69.20
2018-10-09T00:53:42.784Z,68.50
2018-10-09T00:56:10.176Z,68.70
2018-10-09T00:58:37.412Z,68.60
2018-10-09T01:01:04.673Z,68.30
2018-10-09T01:03:31.940Z,68.30
2018-10-09T01:05:59.663Z,68.30
2018-10-09T01:08:26.913Z,68.50
2018-10-09T01:10:54.128Z,68.40
2018-10-09T01:13:21.341Z,68.20
2018-10-09T01:15:48.981Z,68.40
2018-10-09T01:18:16.269Z,68.60
2018-10-09T01:20:43.515Z,68.40
2018-10-09T01:23:10.736Z,68.40
2018-10-09T01:25:38.569Z,68.40
2018-10-09T01:28:05.876Z,68.50
2018-10-09T01:30:33.685Z,68.70
2018-10-09T01:33:01.553Z,68.30
2018-10-09T01:35:28.774Z,68.30
2018-10-09T01:37:56.072Z,68.30
2018-10-09T01:40:23.373Z,68.50
2018-10-09T01:42:51.527Z,68.30
2018-10-09T01:45:19.012Z,68.50
2018-10-09T01:47:46.227Z,68.00
2018-10-09T01:50:13.447Z,67.80
2018-10-09T01:52:40.624Z,68.00
2018-10-09T01:55:08.021Z,68.00
2018-10-09T01:57:35.403Z,67.70
2018-10-09T02:00:04.141Z,67.80
2018-10-09T02:02:31.466Z,67.80
2018-10-09T02:04:58.724Z,67.60
2018-10-09T02:07:25.865Z,67.50
2018-10-09T02:09:53.097Z,67.00
2018-10-09T02:12:20.352Z,67.50
2018-10-09T02:14:47.578Z,67.70
2018-10-09T02:17:14.860Z,67.60
2018-10-09T02:19:42.069Z,67.30
2018-10-09T02:22:09.232Z,67.50
2018-10-09T02:24:36.463Z,67.30
2018-10-09T02:27:03.852Z,67.10
2018-10-09T02:29:31.041Z,67.30
2018-10-09T02:31:58.253Z,67.20
2018-10-09T02:34:25.410Z,67.40
2018-10-09T02:36:52.579Z,67.50
2018-10-09T02:39:20.284Z,67.30
2018-10-09T02:41:47.508Z,67.20
2018-10-09T02:44:14.776Z,67.20
2018-10-09T02:46:41.928Z,67.50
2018-10-09T02:49:09.180Z,67.30
2018-10-09T02:51:36.414Z,67.30
2018-10-09T02:54:04.264Z,67.30
2018-10-09T02:56:31.588Z,67.20
2018-10-09T02:58:58.771Z,67.30
2018-10-09T03:01:26.014Z,67.20
2018-10-09T03:03:53.267Z,66.90
2018-10-09T03:06:20.501Z,67.20
2018-10-09T03:08:47.731Z,67.10
2018-10-09T03:11:14.990Z,67.20
2018-10-09T03:13:42.176Z,67.40
2018-10-09T03:16:09.468Z,67.30
2018-10-09T03:18:36.713Z,67.00
2018-10-09T03:21:03.872Z,66.90
2018-10-09T03:23:31.124Z,66.70
2018-10-09T03:25:58.349Z,66.70
2018-10-09T03:28:25.603Z,66.80
2018-10-09T03:30:52.856Z,66.50
2018-10-09T03:33:20.088Z,66.60
2018-10-09T03:35:47.308Z,66.70
2018-10-09T03:38:14.543Z,66.80
2018-10-09T03:40:41.769Z,66.80
2018-10-09T03:43:09.005Z,66.60
2018-10-09T03:45:36.245Z,66.90
2018-10-09T03:48:03.412Z,67.10
2018-10-09T03:50:30.661Z,66.60
2018-10-09T03:52:57.871Z,66.90
2018-10-09T03:55:25.229Z,67.20
2018-10-09T03:57:52.487Z,67.30
2018-10-09T04:00:19.804Z,67.40
2018-10-09T04:02:47.036Z,67.50
2018-10-09T04:05:14.345Z,67.60
2018-10-09T04:07:41.539Z,67.50
2018-10-09T04:10:08.764Z,67.30
2018-10-09T04:12:35.987Z,67.30
2018-10-09T04:15:03.767Z,67.40
2018-10-09T04:17:30.946Z,67.30
2018-10-09T04:19:58.180Z,67.50
2018-10-09T04:22:25.414Z,67.80
2018-10-09T04:24:52.584Z,67.70
2018-10-09T04:27:19.991Z,67.80
2018-10-09T04:29:47.714Z,67.90
2018-10-09T04:32:14.968Z,67.80
2018-10-09T04:34:42.180Z,67.70
2018-10-09T04:37:09.508Z,67.90
2018-10-09T04:39:36.736Z,67.90
2018-10-09T04:42:04.008Z,68.60
2018-10-09T04:44:31.392Z,67.80
2018-10-09T04:46:58.607Z,67.70
2018-10-09T04:49:25.843Z,67.50
2018-10-09T04:51:53.724Z,67.50
2018-10-09T04:54:21.011Z,67.30
2018-10-09T04:56:48.264Z,67.60
2018-10-09T04:59:16.030Z,67.40
2018-10-09T05:01:43.315Z,67.40
2018-10-09T05:04:10.537Z,67.20
2018-10-09T05:06:37.894Z,67.20
2018-10-09T05:09:07.653Z,67.50
2018-10-09T05:11:34.888Z,67.00
2018-10-09T05:14:02.143Z,66.80
2018-10-09T05:16:29.368Z,67.20
2018-10-09T05:18:56.602Z,66.90
2018-10-09T05:21:23.800Z,66.90
2018-10-09T05:23:51.024Z,66.70
2018-10-09T05:26:18.311Z,66.70
2018-10-09T05:28:45.528Z,66.80
2018-10-09T05:31:12.769Z,66.70
2018-10-09T05:33:39.921Z,66.60
2018-10-09T05:36:07.118Z,66.50
2018-10-09T05:38:34.390Z,66.70
2018-10-09T05:41:01.566Z,66.10
2018-10-09T05:43:28.808Z,66.40
2018-10-09T05:45:55.980Z,66.00
2018-10-09T05:48:23.250Z,66.00
2018-10-09T05:50:50.491Z,66.10
2018-10-09T05:53:17.693Z,66.00
2018-10-09T05:55:44.909Z,66.30
2018-10-09T05:58:12.211Z,66.20
2018-10-09T06:00:39.400Z,66.80
2018-10-09T06:03:06.679Z,66.80
2018-10-09T06:05:33.930Z,66.70
2018-10-09T06:08:01.192Z,66.90
2018-10-09T06:10:28.475Z,67.10
2018-10-09T06:12:55.656Z,68.20
2018-10-09T06:15:22.909Z,67.40
2018-10-09T06:17:50.049Z,67.50
2018-10-09T06:20:17.324Z,67.40
2018-10-09T06:22:44.594Z,67.30
2018-10-09T06:25:11.888Z,67.90
2018-10-09T06:27:39.268Z,68.10
2018-10-09T06:30:06.508Z,68.40
2018-10-09T06:32:34.281Z,68.70
2018-10-09T06:35:01.846Z,68.80
2018-10-09T06:37:29.056Z,68.50
2018-10-09T06:39:56.308Z,68.70
2018-10-09T06:42:23.587Z,68.80
2018-10-09T06:44:50.780Z,69.20
2018-10-09T06:47:17.989Z,69.50
2018-10-09T06:49:45.222Z,69.70
2018-10-09T06:52:12.436Z,70.10
2018-10-09T06:54:39.799Z,70.20
2018-10-09T06:57:07.021Z,70.20
2018-10-09T06:59:34.238Z,70.40
2018-10-09T07:02:01.441Z,70.70
2018-10-09T07:04:28.698Z,71.20
2018-10-09T07:06:55.931Z,71.80
2018-10-09T07:09:23.183Z,72.00
2018-10-09T07:11:50.421Z,72.00
2018-10-09T07:14:17.670Z,71.90
2018-10-09T07:16:44.886Z,72.80
2018-10-09T07:19:12.166Z,72.80
2018-10-09T07:21:39.458Z,72.70
2018-10-09T07:24:06.658Z,73.50
2018-10-09T07:26:33.937Z,73.40
2018-10-09T07:29:01.169Z,73.40
2018-10-09T07:31:28.385Z,73.90
2018-10-09T07:33:55.674Z,73.80
2018-10-09T07:36:22.875Z,73.80
2018-10-09T07:38:50.106Z,74.40
2018-10-09T07:41:17.393Z,73.50
2018-10-09T07:43:44.663Z,73.60
2018-10-09T07:46:11.988Z,73.60
2018-10-09T07:48:39.152Z,74.00
2018-10-09T07:51:06.665Z,73.30
2018-10-09T07:53:33.858Z,73.50
2018-10-09T07:56:01.126Z,73.50
2018-10-09T07:58:28.392Z,73.50
2018-10-09T08:00:55.589Z,73.50
2018-10-09T08:03:22.846Z,73.90
2018-10-09T08:05:50.074Z,74.50
2018-10-09T08:08:17.245Z,74.60
2018-10-09T08:10:44.523Z,74.40
2018-10-09T08:13:11.767Z,74.20
2018-10-09T08:15:38.964Z,74.40
2018-10-09T08:18:06.197Z,74.10
2018-10-09T08:20:33.427Z,74.20
2018-10-09T08:23:00.747Z,74.30
2018-10-09T08:25:27.871Z,74.50
2018-10-09T08:27:55.136Z,74.60
2018-10-09T08:30:22.361Z,74.80
2018-10-09T08:32:49.628Z,74.80
2018-10-09T08:35:16.793Z,75.20
2018-10-09T08:37:44.063Z,75.10
2018-10-09T08:40:11.370Z,74.70
2018-10-09T08:42:38.602Z,74.90
2018-10-09T08:45:06.137Z,74.70
2018-10-09T08:47:33.408Z,74.40
2018-10-09T08:50:00.673Z,74.70
2018-10-09T08:52:27.868Z,74.40
2018-10-09T08:54:55.072Z,74.40
2018-10-09T08:57:22.334Z,74.50
2018-10-09T08:59:50.529Z,74.30
2018-10-09T09:02:17.824Z,74.30
2018-10-09T09:04:45.089Z,74.30
2018-10-09T09:07:12.274Z,74.20
2018-10-09T09:09:39.610Z,73.80
2018-10-09T09:12:06.825Z,73.80
2018-10-09T09:14:34.101Z,73.60
2018-10-09T09:17:01.358Z,73.60
2018-10-09T09:19:28.579Z,73.50
2018-10-09T09:21:55.860Z,73.10
2018-10-09T09:24:23.093Z,73.30
2018-10-09T09:26:50.439Z,73.40
2018-10-09T09:29:17.647Z,73.30
2018-10-09T09:31:44.820Z,73.10
2018-10-09T09:34:12.002Z,73.20
2018-10-09T09:36:39.258Z,73.10
2018-10-09T09:39:07.396Z,72.90
2018-10-09T09:41:35.561Z,73.20
2018-10-09T09:44:03.586Z,73.00
2018-10-09T09:46:30.891Z,73.30
2018-10-09T09:48:58.141Z,73.30
2018-10-09T09:51:25.414Z,73.40
2018-10-09T09:53:52.584Z,73.00
2018-10-09T09:56:19.817Z,72.90
2018-10-09T09:58:47.200Z,73.00
2018-10-09T10:01:14.353Z,73.50
2018-10-09T10:03:41.746Z,72.60
2018-10-09T10:06:09.087Z,72.50
2018-10-09T10:08:36.475Z,72.40
2018-10-09T10:11:03.907Z,72.50
2018-10-09T10:13:31.105Z,72.80
2018-10-09T10:15:58.385Z,72.60
2018-10-09T10:18:26.073Z,72.60
2018-10-09T10:20:53.949Z,72.90
2018-10-09T10:23:21.230Z,72.80
2018-10-09T10:25:48.568Z,72.70
2018-10-09T10:28:16.168Z,72.70
2018-10-09T10:30:43.304Z,71.60
2018-10-09T10:33:10.483Z,72.50
2018-10-09T10:35:37.694Z,72.60
2018-10-09T10:38:04.905Z,72.70
2018-10-09T10:40:32.160Z,72.80
2018-10-09T10:42:59.452Z,72.90
2018-10-09T10:45:26.724Z,72.70
2018-10-09T10:47:54.109Z,72.80
2018-10-09T10:50:21.376Z,72.90
2018-10-09T10:52:48.629Z,72.70
2018-10-09T10:55:15.903Z,72.70
2018-10-09T10:57:43.154Z,72.70
2018-10-09T11:00:10.410Z,72.60
2018-10-09T11:02:37.665Z,72.90
2018-10-09T11:05:05.117Z,72.90
2018-10-09T11:07:32.688Z,72.90
2018-10-09T11:09:59.980Z,72.90
2018-10-09T11:12:27.288Z,73.10
2018-10-09T11:14:54.517Z,73.10
2018-10-09T11:17:21.761Z,73.80
2018-10-09T11:19:48.961Z,73.00
2018-10-09T11:22:16.205Z,73.10
2018-10-09T11:24:43.497Z,73.30
2018-10-09T11:27:10.805Z,73.40
2018-10-09T11:29:38.489Z,73.40
2018-10-09T11:32:06.168Z,73.80
2018-10-09T11:34:33.594Z,73.20
2018-10-09T11:37:00.919Z,73.20
2018-10-09T11:39:28.102Z,73.20
2018-10-09T11:41:55.386Z,73.30
2018-10-09T11:44:22.555Z,73.40
2018-10-09T11:46:49.818Z,73.40
2018-10-09T11:49:17.049Z,73.20
2018-10-09T11:51:44.283Z,73.40
2018-10-09T11:54:11.545Z,73.30
2018-10-09T11:56:38.845Z,73.00
2018-10-09T11:59:06.239Z,73.00
2018-10-09T12:01:33.436Z,73.10
2018-10-09T12:04:00.665Z,73.20
2018-10-09T12:06:28.517Z,73.10
2018-10-09T12:08:55.665Z,73.00
2018-10-09T12:11:22.929Z,73.10
2018-10-09T12:13:50.169Z,73.20
2018-10-09T12:16:17.661Z,73.10
2018-10-09T12:18:44.839Z,73.00
2018-10-09T12:21:12.031Z,73.00
2018-10-09T12:23:39.461Z,72.90
2018-10-09T12:26:06.966Z,72.80
2018-10-09T12:28:35.225Z,72.70
2018-10-09T12:31:02.511Z,72.60
2018-10-09T12:33:29.784Z,72.30
2018-10-09T12:35:57.056Z,72.30
2018-10-09T12:38:24.309Z,72.40
2018-10-09T12:40:51.471Z,72.50
2018-10-09T12:43:18.761Z,72.50
2018-10-09T12:45:45.985Z,72.50
2018-10-09T12:48:13.251Z,72.40
2018-10-09T12:50:40.506Z,72.50
2018-10-09T12:53:07.818Z,72.30
2018-10-09T12:55:35.006Z,72.30
2018-10-09T12:58:02.893Z,72.30
2018-10-09T13:00:30.285Z,72.20
2018-10-09T13:02:57.562Z,72.20
2018-10-09T13:05:24.814Z,72.30
2018-10-09T13:07:52.040Z,72.30
2018-10-09T13:10:19.280Z,72.30
2018-10-09T13:12:46.526Z,72.10
2018-10-09T13:15:13.777Z,72.50
2018-10-09T13:17:41.012Z,71.90
2018-10-09T13:20:08.412Z,72.00
2018-10-09T13:22:53.024Z,71.80
2018-10-09T13:25:20.167Z,71.80
2018-10-09T13:27:47.373Z,71.90
2018-10-09T13:30:14.671Z,71.90
2018-10-09T13:32:42.052Z,72.70
2018-10-09T13:35:09.232Z,71.80
2018-10-09T13:37:36.504Z,71.70
2018-10-09T13:40:03.845Z,71.90
2018-10-09T13:42:31.038Z,71.90
2018-10-09T13:44:58.285Z,72.00
2018-10-09T13:47:25.632Z,72.00
2018-10-09T13:49:52.674Z,72.00
2018-10-09T13:52:19.973Z,72.40
2018-10-09T13:54:47.301Z,71.70
2018-10-09T13:57:14.811Z,72.10
2018-10-09T13:59:42.077Z,71.60
2018-10-09T14:02:09.291Z,71.70
2018-10-09T14:04:36.453Z,71.70
2018-10-09T14:07:03.680Z,71.70
2018-10-09T14:09:30.837Z,72.30
2018-10-09T14:11:58.044Z,71.70
2018-10-09T14:14:25.305Z,71.60
2018-10-09T14:16:52.589Z,71.60
2018-10-09T14:19:19.872Z,71.70
2018-10-09T14:21:47.093Z,71.70
2018-10-09T14:24:14.341Z,71.80
2018-10-09T14:26:42.348Z,71.30
2018-10-09T14:29:09.645Z,71.50
2018-10-09T14:31:36.848Z,71.60
2018-10-09T14:34:04.117Z,71.70
2018-10-09T14:36:31.326Z,71.60
2018-10-09T14:38:58.563Z,71.70
2018-10-09T14:41:26.740Z,71.50
2018-10-09T14:43:54.052Z,71.50
2018-10-09T14:46:21.205Z,71.30
2018-10-09T14:48:48.408Z,71.30
2018-10-09T14:51:15.594Z,71.40
2018-10-09T14:53:42.851Z,71.40
2018-10-09T14:56:10.033Z,71.40
2018-10-09T14:58:37.214Z,71.40
2018-10-09T15:01:04.510Z,71.40
2018-10-09T15:03:31.806Z,71.50
2018-10-09T15:05:58.952Z,71.50
2018-10-09T15:08:26.148Z,71.50
2018-10-09T15:10:53.333Z,71.50
2018-10-09T15:13:20.601Z,71.50
2018-10-09T15:15:47.848Z,71.60
2018-10-09T15:18:15.085Z,71.70
2018-10-09T15:20:42.308Z,71.90
2018-10-09T15:23:09.647Z,71.90
2018-10-09T15:25:36.877Z,72.00
2018-10-09T15:28:04.273Z,71.90
2018-10-09T15:30:32.202Z,71.70
2018-10-09T15:32:59.633Z,71.70
2018-10-09T15:35:26.906Z,71.50
2018-10-09T15:37:54.117Z,71.80
2018-10-09T15:40:21.363Z,71.80
2018-10-09T15:42:48.596Z,71.90
2018-10-09T15:45:16.319Z,72.10
2018-10-09T15:47:43.565Z,71.90
2018-10-09T15:50:10.786Z,72.10
2018-10-09T15:52:38.136Z,72.10
2018-10-09T15:55:05.376Z,72.20
2018-10-09T15:57:32.602Z,72.20
2018-10-09T15:59:59.809Z,72.50
2018-10-09T16:02:26.981Z,72.80
2018-10-09T16:04:54.268Z,72.80
2018-10-09T16:07:22.369Z,72.90
2018-10-09T16:09:49.582Z,73.10
2018-10-09T16:12:16.840Z,73.10
2018-10-09T16:14:44.092Z,73.40
2018-10-09T16:17:11.264Z,73.80
2018-10-09T16:19:38.661Z,74.00
2018-10-09T16:22:06.006Z,74.50
2018-10-09T16:24:33.229Z,74.40
2018-10-09T16:27:00.456Z,74.50
2018-10-09T16:29:27.617Z,74.80
2018-10-09T16:31:54.797Z,75.00
2018-10-09T16:34:22.057Z,75.10
2018-10-09T16:36:49.353Z,75.40
2018-10-09T16:39:16.785Z,75.70
2018-10-09T16:41:44.105Z,75.60
2018-10-09T16:44:11.839Z,75.60
2018-10-09T16:46:39.393Z,75.70
2018-10-09T16:49:06.627Z,76.60
2018-10-09T16:51:33.864Z,75.60
2018-10-09T16:54:01.041Z,75.40
2018-10-09T16:56:28.249Z,75.50
2018-10-09T16:58:56.634Z,75.40
2018-10-09T17:01:24.888Z,75.50
2018-10-09T17:03:52.140Z,75.40
2018-10-09T17:06:19.317Z,75.40
2018-10-09T17:08:46.452Z,75.40
2018-10-09T17:11:13.625Z,75.00
2018-10-09T17:13:40.877Z,75.00
2018-10-09T17:16:08.145Z,75.00
2018-10-09T17:18:35.407Z,75.00
2018-10-09T17:21:02.647Z,75.20
2018-10-09T17:23:29.861Z,75.30
2018-10-09T17:25:57.098Z,75.30
2018-10-09T17:28:24.370Z,75.30
2018-10-09T17:30:51.510Z,75.00
2018-10-09T17:33:18.856Z,75.00
2018-10-09T17:35:46.014Z,74.80
2018-10-09T17:38:13.804Z,75.00
2018-10-09T17:40:41.016Z,74.80
2018-10-09T17:43:08.308Z,74.80
2018-10-09T17:45:35.499Z,75.10
2018-10-09T17:48:02.676Z,75.10
2018-10-09T17:50:29.884Z,74.90
2018-10-09T17:52:57.038Z,75.00
2018-10-09T17:55:24.265Z,74.70
2018-10-09T17:57:51.546Z,74.80
2018-10-09T18:00:18.849Z,74.40
2018-10-09T18:02:46.150Z,74.80
2018-10-09T18:05:13.342Z,74.60
2018-10-09T18:07:40.544Z,74.70
2018-10-09T18:10:07.809Z,74.60
2018-10-09T18:12:35.053Z,74.40
2018-10-09T18:15:02.335Z,74.70
2018-10-09T18:17:29.404Z,74.60
2018-10-09T18:19:56.944Z,74.70
2018-10-09T18:22:24.193Z,74.80
2018-10-09T18:24:51.357Z,74.70
2018-10-09T18:27:18.550Z,74.60
2018-10-09T18:29:45.694Z,74.40
2018-10-09T18:32:12.907Z,74.40
2018-10-09T18:34:40.097Z,74.40
2018-10-09T18:37:07.284Z,74.50
2018-10-09T18:39:34.493Z,74.50
2018-10-09T18:42:03.955Z,74.40
2018-10-09T18:44:31.319Z,74.40
2018-10-09T18:46:58.526Z,74.60
2018-10-09T18:49:25.772Z,74.40
2018-10-09T18:51:53.059Z,74.40
2018-10-09T18:54:20.250Z,74.50
2018-10-09T18:56:47.472Z,74.70
2018-10-09T18:59:14.697Z,74.60
2018-10-09T19:01:41.913Z,74.60
2018-10-09T19:04:09.115Z,74.60
2018-10-09T19:06:36.297Z,74.70
2018-10-09T19:09:07.018Z,74.70
2018-10-09T19:11:34.201Z,74.50
2018-10-09T19:14:01.454Z,74.70
2018-10-09T19:16:28.618Z,74.70
2018-10-09T19:18:55.805Z,74.80
2018-10-09T19:21:23.662Z,74.70
2018-10-09T19:23:51.043Z,74.70
2018-10-09T19:26:18.739Z,74.70
2018-10-09T19:28:45.927Z,74.70
2018-10-09T19:31:13.164Z,74.80
2018-10-09T19:33:40.409Z,75.00
2018-10-09T19:36:07.649Z,74.70
2018-10-09T19:38:34.893Z,74.80
2018-10-09T19:41:02.039Z,74.60
2018-10-09T19:43:30.501Z,74.80
2018-10-09T19:45:57.730Z,74.90
2018-10-09T19:48:25.013Z,74.80
2018-10-09T19:50:54.711Z,74.80
2018-10-09T19:53:21.929Z,74.70
2018-10-09T19:55:49.131Z,74.60
2018-10-09T19:58:16.345Z,74.90
2018-10-09T20:00:43.638Z,74.90
2018-10-09T20:03:10.932Z,74.90
2018-10-09T20:05:38.177Z,74.80
2018-10-09T20:08:05.602Z,74.70
2018-10-09T20:10:32.760Z,74.80
2018-10-09T20:13:00.030Z,74.80
2018-10-09T20:15:29.901Z,74.80
2018-10-09T20:17:57.157Z,74.70
2018-10-09T20:20:24.372Z,74.80
2018-10-09T20:22:51.509Z,74.90
2018-10-09T20:25:18.694Z,74.80
2018-10-09T20:27:45.912Z,74.80
2018-10-09T20:30:13.049Z,74.80
2018-10-09T20:32:40.297Z,74.80
2018-10-09T20:35:07.667Z,74.70
2018-10-09T20:37:34.912Z,74.40
2018-10-09T20:40:02.161Z,74.70
2018-10-09T20:42:29.416Z,74.60
2018-10-09T20:44:57.137Z,74.40
2018-10-09T20:47:30.119Z,75.00
2018-10-09T20:49:57.416Z,74.40
2018-10-09T20:52:24.669Z,74.30
2018-10-09T20:54:52.233Z,74.40
2018-10-09T20:57:19.478Z,74.30
2018-10-09T20:59:46.666Z,74.20
2018-10-09T21:02:13.837Z,74.20
2018-10-09T21:04:41.105Z,73.90
2018-10-09T21:07:08.336Z,74.00
2018-10-09T21:09:35.557Z,74.00
2018-10-09T21:12:02.769Z,74.20
2018-10-09T21:14:29.917Z,74.00
2018-10-09T21:16:57.839Z,74.10
2018-10-09T21:19:25.262Z,74.00
2018-10-09T21:21:52.597Z,73.90
2018-10-09T21:24:19.773Z,73.80
2018-10-09T21:26:47.030Z,73.50
2018-10-09T21:29:14.238Z,73.50
2018-10-09T21:31:41.391Z,73.50
2018-10-09T21:34:08.643Z,73.50
2018-10-09T21:36:36.900Z,73.50
2018-10-09T21:39:06.020Z,73.30
2018-10-09T21:41:33.239Z,73.30
2018-10-09T21:44:00.421Z,73.20
2018-10-09T21:46:27.650Z,73.30
2018-10-09T21:48:54.790Z,73.00
2018-10-09T21:51:22.110Z,73.00
2018-10-09T21:53:49.388Z,72.90
2018-10-09T21:56:16.561Z,72.90
2018-10-09T21:58:43.753Z,72.80
2018-10-09T22:01:11.952Z,73.00
2018-10-09T22:03:39.876Z,72.80
2018-10-09T22:06:07.454Z,72.80
2018-10-09T22:08:34.869Z,72.60
2018-10-09T22:11:02.036Z,72.50
2018-10-09T22:13:29.399Z,72.60
2018-10-09T22:15:56.628Z,72.70
2018-10-09T22:18:24.014Z,72.40
2018-10-09T22:20:51.405Z,72.80
2018-10-09T22:23:18.609Z,72.80
2018-10-09T22:25:46.130Z,72.30
2018-10-09T22:28:13.322Z,72.60
2018-10-09T22:30:40.540Z,72.40
2018-10-09T22:33:08.410Z,72.20
2018-10-09T22:35:35.659Z,72.40
2018-10-09T22:38:02.887Z,72.30
2018-10-09T22:40:30.083Z,72.10
2018-10-09T22:42:57.309Z,72.30
2018-10-09T22:45:24.560Z,72.30
2018-10-09T22:47:51.785Z,72.30
2018-10-09T22:50:19.648Z,72.20
2018-10-09T22:52:46.825Z,72.30
2018-10-09T22:55:14.039Z,72.50
2018-10-09T22:57:41.253Z,72.20
2018-10-09T23:00:08.705Z,72.20
2018-10-09T23:02:35.956Z,72.00
2018-10-09T23:05:03.209Z,71.90
2018-10-09T23:07:30.457Z,71.90
2018-10-09T23:09:57.756Z,72.10
2018-10-09T23:12:24.930Z,71.90
2018-10-09T23:14:52.109Z,70.90
2018-10-09T23:17:19.316Z,71.90
2018-10-09T23:19:46.517Z,71.90
2018-10-09T23:22:13.689Z,72.50
2018-10-09T23:24:40.941Z,71.60
2018-10-09T23:27:08.321Z,71.70
2018-10-09T23:29:35.567Z,71.90
2018-10-09T23:32:02.946Z,71.70
2018-10-09T23:34:30.157Z,71.70
2018-10-09T23:36:57.453Z,71.70
2018-10-09T23:39:24.784Z,71.40
2018-10-09T23:41:52.056Z,71.50
2018-10-09T23:44:19.293Z,71.70
2018-10-09T23:46:46.485Z,71.80
2018-10-09T23:49:13.700Z,71.80
2018-10-09T23:51:40.892Z,71.70
2018-10-09T23:54:08.145Z,71.90
2018-10-09T23:56:35.371Z,71.90
2018-10-09T23:59:02.608Z,71.80
